createdAt,value
2022-12-25T00:00:43.793Z,10.54
2022-12-25T00:01:43.784Z,10.54
2022-12-25T00:02:43.892Z,10.52
2022-12-25T00:03:43.834Z,10.52
2022-12-25T00:04:43.721Z,10.54
2022-12-25T00:05:43.726Z,10.52
2022-12-25T00:06:43.681Z,10.52
2022-12-25T00:07:43.711Z,10.52
2022-12-25T00:08:43.684Z,10.54
2022-12-25T00:09:43.670Z,10.55
2022-12-25T00:10:45.574Z,10.55
2022-12-25T00:11:43.651Z,10.55
2022-12-25T00:12:43.631Z,10.55
2022-12-25T00:13:43.614Z,10.57
2022-12-25T00:14:43.623Z,10.55
2022-12-25T00:15:43.592Z,10.57
2022-12-25T00:16:43.630Z,10.57
2022-12-25T00:17:43.594Z,10.54
2022-12-25T00:18:43.563Z,10.54
2022-12-25T00:19:43.606Z,10.54
2022-12-25T00:20:43.538Z,10.55
2022-12-25T00:21:43.537Z,10.54
2022-12-25T00:22:43.531Z,10.54
2022-12-25T00:23:43.525Z,10.54
2022-12-25T00:24:43.501Z,10.54
2022-12-25T00:25:43.502Z,10.52
2022-12-25T00:26:43.497Z,10.55
2022-12-25T00:27:43.472Z,10.57
2022-12-25T00:28:43.473Z,10.58
2022-12-25T00:29:43.458Z,10.58
2022-12-25T00:30:43.434Z,10.58
2022-12-25T00:31:43.555Z,10.58
2022-12-25T00:32:43.444Z,10.60
2022-12-25T00:33:43.396Z,10.58
2022-12-25T00:34:43.441Z,10.58
2022-12-25T00:35:43.385Z,10.57
2022-12-25T00:36:43.419Z,10.57
2022-12-25T00:37:43.375Z,10.57
2022-12-25T00:38:43.374Z,10.58
2022-12-25T00:39:43.336Z,10.58
2022-12-25T00:40:43.344Z,10.58
2022-12-25T00:41:43.328Z,10.57
2022-12-25T00:42:43.340Z,10.57
2022-12-25T00:43:43.313Z,10.55
2022-12-25T00:44:43.285Z,10.58
2022-12-25T00:45:43.344Z,10.57
2022-12-25T00:46:43.307Z,10.55
2022-12-25T00:47:43.267Z,10.58
2022-12-25T00:48:43.251Z,10.57
2022-12-25T00:49:43.251Z,10.57
2022-12-25T00:50:43.286Z,10.55
2022-12-25T00:51:43.212Z,10.58
2022-12-25T00:52:43.220Z,10.57
2022-12-25T00:53:43.186Z,10.55
2022-12-25T00:54:43.198Z,10.54
2022-12-25T00:55:43.175Z,10.55
2022-12-25T00:56:43.167Z,10.55
2022-12-25T00:57:43.161Z,10.58
2022-12-25T00:58:43.136Z,10.58
2022-12-25T00:59:43.141Z,10.60
2022-12-25T01:00:43.164Z,10.60
2022-12-25T01:01:43.360Z,10.62
2022-12-25T01:02:43.286Z,10.63
2022-12-25T01:03:43.089Z,10.63
2022-12-25T01:04:43.080Z,10.65
2022-12-25T01:05:43.059Z,10.63
2022-12-25T01:06:43.053Z,10.63
2022-12-25T01:07:43.060Z,10.63
2022-12-25T01:08:43.041Z,10.63
2022-12-25T01:09:43.041Z,10.65
2022-12-25T01:10:43.004Z,10.63
2022-12-25T01:11:43.003Z,10.65
2022-12-25T01:12:42.988Z,10.63
2022-12-25T01:13:42.981Z,10.65
2022-12-25T01:14:42.982Z,10.62
2022-12-25T01:15:42.948Z,10.66
2022-12-25T01:16:43.026Z,10.65
2022-12-25T01:17:42.940Z,10.62
2022-12-25T01:18:42.945Z,10.62
2022-12-25T01:19:42.912Z,10.63
2022-12-25T01:20:42.900Z,10.63
2022-12-25T01:21:42.902Z,10.63
2022-12-25T01:22:42.913Z,10.62
2022-12-25T01:23:42.871Z,10.62
2022-12-25T01:24:42.858Z,10.62
2022-12-25T01:25:42.864Z,10.65
2022-12-25T01:26:42.865Z,10.65
2022-12-25T01:27:42.864Z,10.62
2022-12-25T01:28:42.839Z,10.60
2022-12-25T01:29:42.812Z,10.62
2022-12-25T01:30:42.804Z,10.60
2022-12-25T01:31:42.833Z,10.62
2022-12-25T01:32:42.799Z,10.65
2022-12-25T01:33:42.773Z,10.63
2022-12-25T01:34:42.765Z,10.63
2022-12-25T01:35:42.758Z,10.63
2022-12-25T01:36:42.745Z,10.62
2022-12-25T01:37:42.737Z,10.60
2022-12-25T01:38:42.716Z,10.58
2022-12-25T01:39:42.695Z,10.57
2022-12-25T01:40:42.704Z,10.57
2022-12-25T01:41:42.695Z,10.57
2022-12-25T01:42:42.665Z,10.57
2022-12-25T01:43:42.666Z,10.55
2022-12-25T01:44:42.655Z,10.57
2022-12-25T01:45:42.713Z,10.58
2022-12-25T01:46:42.639Z,10.57
2022-12-25T01:47:42.629Z,10.57
2022-12-25T01:48:42.617Z,10.57
2022-12-25T01:49:42.600Z,10.54
2022-12-25T01:50:42.615Z,10.55
2022-12-25T01:51:42.568Z,10.55
2022-12-25T01:52:42.559Z,10.55
2022-12-25T01:53:42.557Z,10.55
2022-12-25T01:54:42.535Z,10.54
2022-12-25T01:55:42.536Z,10.54
2022-12-25T01:56:42.527Z,10.52
2022-12-25T01:57:42.498Z,10.49
2022-12-25T01:58:42.505Z,10.47
2022-12-25T01:59:42.506Z,10.44
2022-12-25T02:00:42.513Z,10.46
2022-12-25T02:01:42.603Z,10.43
2022-12-25T02:02:42.583Z,10.43
2022-12-25T02:03:42.499Z,10.43
2022-12-25T02:04:42.455Z,10.43
2022-12-25T02:05:42.449Z,10.44
2022-12-25T02:06:42.420Z,10.43
2022-12-25T02:07:42.427Z,10.46
2022-12-25T02:08:42.387Z,10.44
2022-12-25T02:09:42.394Z,10.43
2022-12-25T02:10:42.381Z,10.44
2022-12-25T02:11:42.364Z,10.43
2022-12-25T02:12:42.388Z,10.44
2022-12-25T02:13:42.359Z,10.44
2022-12-25T02:14:42.335Z,10.44
2022-12-25T02:15:42.312Z,10.43
2022-12-25T02:16:58.305Z,10.44
2022-12-25T02:17:43.323Z,10.44
2022-12-25T02:18:42.297Z,10.46
2022-12-25T02:19:42.270Z,10.44
2022-12-25T02:20:42.263Z,10.44
2022-12-25T02:21:42.264Z,10.43
2022-12-25T02:22:42.230Z,10.46
2022-12-25T02:23:42.248Z,10.46
2022-12-25T02:24:42.214Z,10.44
2022-12-25T02:25:42.213Z,10.46
2022-12-25T02:26:42.218Z,10.44
2022-12-25T02:27:42.227Z,10.44
2022-12-25T02:28:45.736Z,10.44
2022-12-25T02:29:42.177Z,10.44
2022-12-25T02:30:42.162Z,10.46
2022-12-25T02:31:42.190Z,10.47
2022-12-25T02:32:42.147Z,10.46
2022-12-25T02:33:42.154Z,10.44
2022-12-25T02:34:42.126Z,10.46
2022-12-25T02:35:42.116Z,10.46
2022-12-25T02:36:42.106Z,10.47
2022-12-25T02:37:42.097Z,10.46
2022-12-25T02:38:42.068Z,10.46
2022-12-25T02:39:42.096Z,10.46
2022-12-25T02:40:42.052Z,10.47
2022-12-25T02:41:42.054Z,10.46
2022-12-25T02:42:42.043Z,10.47
2022-12-25T02:43:42.028Z,10.46
2022-12-25T02:44:42.020Z,10.46
2022-12-25T02:45:42.079Z,10.46
2022-12-25T02:46:41.998Z,10.44
2022-12-25T02:47:41.988Z,10.44
2022-12-25T02:48:41.990Z,10.43
2022-12-25T02:49:41.994Z,10.43
2022-12-25T02:50:41.939Z,10.43
2022-12-25T02:51:41.945Z,10.44
2022-12-25T02:52:41.927Z,10.46
2022-12-25T02:53:41.936Z,10.44
2022-12-25T02:54:41.912Z,10.43
2022-12-25T02:55:41.900Z,10.46
2022-12-25T02:56:41.890Z,10.46
2022-12-25T02:57:41.873Z,10.46
2022-12-25T02:58:41.855Z,10.46
2022-12-25T02:59:41.868Z,10.47
2022-12-25T03:00:41.868Z,10.46
2022-12-25T03:01:42.034Z,10.47
2022-12-25T03:02:41.836Z,10.46
2022-12-25T03:03:41.854Z,10.47
2022-12-25T03:04:41.802Z,10.47
2022-12-25T03:05:41.800Z,10.47
2022-12-25T03:06:41.792Z,10.46
2022-12-25T03:07:41.762Z,10.46
2022-12-25T03:08:41.759Z,10.46
2022-12-25T03:09:41.773Z,10.46
2022-12-25T03:10:41.732Z,10.46
2022-12-25T03:11:41.723Z,10.46
2022-12-25T03:12:41.700Z,10.46
2022-12-25T03:13:41.714Z,10.44
2022-12-25T03:14:41.714Z,10.46
2022-12-25T03:15:41.683Z,10.47
2022-12-25T03:16:41.770Z,10.47
2022-12-25T03:17:41.676Z,10.44
2022-12-25T03:18:41.665Z,10.43
2022-12-25T03:19:41.660Z,10.42
2022-12-25T03:20:41.625Z,10.43
2022-12-25T03:21:41.622Z,10.43
2022-12-25T03:22:41.615Z,10.44
2022-12-25T03:23:41.609Z,10.44
2022-12-25T03:24:41.586Z,10.44
2022-12-25T03:25:41.576Z,10.46
2022-12-25T03:26:41.574Z,10.43
2022-12-25T03:27:41.564Z,10.46
2022-12-25T03:28:41.563Z,10.44
2022-12-25T03:29:41.539Z,10.44
2022-12-25T03:30:41.561Z,10.43
2022-12-25T03:31:41.518Z,10.42
2022-12-25T03:32:41.506Z,10.39
2022-12-25T03:33:45.719Z,10.36
2022-12-25T03:34:41.468Z,10.36
2022-12-25T03:35:41.468Z,10.35
2022-12-25T03:36:41.447Z,10.35
2022-12-25T03:37:41.456Z,10.35
2022-12-25T03:38:41.457Z,10.38
2022-12-25T03:39:41.425Z,10.38
2022-12-25T03:40:41.433Z,10.38
2022-12-25T03:41:41.429Z,10.38
2022-12-25T03:42:41.405Z,10.38
2022-12-25T03:43:41.397Z,10.38
2022-12-25T03:44:41.388Z,10.38
2022-12-25T03:45:41.371Z,10.36
2022-12-25T03:46:41.378Z,10.35
2022-12-25T03:47:41.349Z,10.32
2022-12-25T03:48:41.321Z,10.31
2022-12-25T03:49:41.314Z,10.28
2022-12-25T03:50:41.330Z,10.26
2022-12-25T03:51:41.312Z,10.25
2022-12-25T03:52:41.279Z,10.26
2022-12-25T03:53:41.295Z,10.26
2022-12-25T03:54:41.270Z,10.25
2022-12-25T03:55:41.274Z,10.25
2022-12-25T03:56:41.272Z,10.25
2022-12-25T03:57:41.242Z,10.24
2022-12-25T03:58:41.251Z,10.24
2022-12-25T03:59:41.227Z,10.25
2022-12-25T04:00:41.193Z,10.24
2022-12-25T04:01:41.362Z,10.24
2022-12-25T04:02:41.370Z,10.22
2022-12-25T04:03:41.252Z,10.22
2022-12-25T04:04:41.164Z,10.20
2022-12-25T04:05:41.167Z,10.20
2022-12-25T04:06:41.133Z,10.20
2022-12-25T04:07:41.152Z,10.22
2022-12-25T04:08:41.127Z,10.22
2022-12-25T04:09:41.116Z,10.22
2022-12-25T04:10:41.086Z,10.22
2022-12-25T04:11:41.119Z,10.20
2022-12-25T04:12:41.080Z,10.22
2022-12-25T04:13:41.066Z,10.18
2022-12-25T04:14:41.048Z,10.18
2022-12-25T04:15:41.098Z,10.18
2022-12-25T04:16:41.055Z,10.20
2022-12-25T04:17:41.021Z,10.20
2022-12-25T04:18:41.015Z,10.22
2022-12-25T04:19:41.008Z,10.18
2022-12-25T04:20:41.015Z,10.18
2022-12-25T04:21:40.986Z,10.20
2022-12-25T04:22:40.968Z,10.22
2022-12-25T04:23:40.970Z,10.22
2022-12-25T04:24:40.959Z,10.20
2022-12-25T04:25:40.957Z,10.22
2022-12-25T04:26:40.927Z,10.20
2022-12-25T04:27:40.934Z,10.22
2022-12-25T04:28:40.897Z,10.24
2022-12-25T04:29:40.906Z,10.25
2022-12-25T04:30:40.888Z,10.25
2022-12-25T04:31:40.999Z,10.25
2022-12-25T04:32:40.859Z,10.26
2022-12-25T04:33:40.858Z,10.26
2022-12-25T04:34:40.853Z,10.25
2022-12-25T04:35:40.827Z,10.25
2022-12-25T04:36:40.869Z,10.24
2022-12-25T04:37:40.818Z,10.24
2022-12-25T04:38:40.791Z,10.26
2022-12-25T04:39:40.781Z,10.26
2022-12-25T04:40:40.784Z,10.26
2022-12-25T04:41:40.781Z,10.26
2022-12-25T04:42:40.751Z,10.26
2022-12-25T04:43:40.755Z,10.26
2022-12-25T04:44:40.739Z,10.28
2022-12-25T04:45:40.732Z,10.29
2022-12-25T04:46:40.768Z,10.26
2022-12-25T04:47:40.731Z,10.28
2022-12-25T04:48:40.711Z,10.29
2022-12-25T04:49:40.689Z,10.29
2022-12-25T04:50:40.682Z,10.29
2022-12-25T04:51:40.659Z,10.28
2022-12-25T04:52:40.767Z,10.26
2022-12-25T04:53:40.641Z,10.26
2022-12-25T04:54:40.622Z,10.28
2022-12-25T04:55:40.623Z,10.26
2022-12-25T04:56:45.595Z,10.24
2022-12-25T04:57:41.606Z,10.24
2022-12-25T04:58:40.601Z,10.20
2022-12-25T04:59:40.597Z,10.22
2022-12-25T05:00:40.582Z,10.18
2022-12-25T05:01:40.763Z,10.20
2022-12-25T05:02:40.862Z,10.20
2022-12-25T05:03:40.687Z,10.22
2022-12-25T05:04:40.526Z,10.20
2022-12-25T05:05:40.519Z,10.20
2022-12-25T05:06:40.497Z,10.20
2022-12-25T05:07:40.494Z,10.20
2022-12-25T05:08:40.474Z,10.20
2022-12-25T05:09:40.475Z,10.22
2022-12-25T05:10:40.500Z,10.24
2022-12-25T05:11:40.454Z,10.24
2022-12-25T05:12:40.433Z,10.25
2022-12-25T05:13:40.446Z,10.26
2022-12-25T05:14:40.435Z,10.26
2022-12-25T05:15:40.429Z,10.28
2022-12-25T05:16:40.417Z,10.28
2022-12-25T05:17:40.386Z,10.28
2022-12-25T05:18:40.396Z,10.26
2022-12-25T05:19:40.378Z,10.31
2022-12-25T05:20:40.635Z,10.31
2022-12-25T05:21:40.348Z,10.31
2022-12-25T05:22:40.355Z,10.31
2022-12-25T05:23:40.325Z,10.29
2022-12-25T05:24:40.316Z,10.29
2022-12-25T05:25:40.303Z,10.29
2022-12-25T05:26:40.324Z,10.31
2022-12-25T05:27:40.287Z,10.31
2022-12-25T05:28:40.265Z,10.31
2022-12-25T05:29:40.252Z,10.32
2022-12-25T05:30:40.268Z,10.31
2022-12-25T05:31:40.334Z,10.32
2022-12-25T05:32:40.220Z,10.31
2022-12-25T05:33:40.208Z,10.32
2022-12-25T05:34:40.205Z,10.34
2022-12-25T05:35:40.210Z,10.35
2022-12-25T05:36:40.221Z,10.36
2022-12-25T05:37:40.198Z,10.38
2022-12-25T05:38:40.159Z,10.36
2022-12-25T05:39:40.149Z,10.38
2022-12-25T05:40:40.144Z,10.39
2022-12-25T05:41:40.119Z,10.39
2022-12-25T05:42:40.150Z,10.38
2022-12-25T05:43:40.090Z,10.38
2022-12-25T05:44:40.098Z,10.39
2022-12-25T05:45:40.099Z,10.38
2022-12-25T05:46:40.121Z,10.39
2022-12-25T05:47:40.051Z,10.39
2022-12-25T05:48:40.104Z,10.38
2022-12-25T05:49:40.062Z,10.36
2022-12-25T05:50:40.030Z,10.39
2022-12-25T05:51:40.031Z,10.39
2022-12-25T05:52:40.021Z,10.39
2022-12-25T05:53:40.016Z,10.42
2022-12-25T05:54:39.984Z,10.39
2022-12-25T05:55:39.990Z,10.39
2022-12-25T05:56:39.976Z,10.42
2022-12-25T05:57:39.950Z,10.42
2022-12-25T05:58:39.968Z,10.39
2022-12-25T05:59:39.922Z,10.39
2022-12-25T06:00:39.928Z,10.42
2022-12-25T06:01:39.978Z,10.42
2022-12-25T06:02:40.225Z,10.39
2022-12-25T06:03:40.007Z,10.42
2022-12-25T06:04:39.885Z,10.42
2022-12-25T06:05:39.886Z,10.43
2022-12-25T06:06:39.863Z,10.43
2022-12-25T06:07:39.842Z,10.43
2022-12-25T06:08:40.763Z,10.44
2022-12-25T06:09:39.832Z,10.46
2022-12-25T06:10:39.813Z,10.46
2022-12-25T06:11:39.798Z,10.46
2022-12-25T06:12:39.804Z,10.49
2022-12-25T06:13:39.792Z,10.49
2022-12-25T06:14:39.784Z,10.47
2022-12-25T06:15:39.774Z,10.46
2022-12-25T06:16:39.875Z,10.44
2022-12-25T06:17:39.742Z,10.44
2022-12-25T06:18:39.745Z,10.44
2022-12-25T06:19:39.731Z,10.46
2022-12-25T06:20:39.723Z,10.44
2022-12-25T06:21:39.718Z,10.44
2022-12-25T06:22:39.707Z,10.46
2022-12-25T06:23:39.815Z,10.46
2022-12-25T06:24:39.681Z,10.47
2022-12-25T06:25:39.697Z,10.47
2022-12-25T06:26:39.648Z,10.46
2022-12-25T06:27:39.645Z,10.46
2022-12-25T06:28:39.663Z,10.46
2022-12-25T06:29:39.635Z,10.43
2022-12-25T06:30:39.613Z,10.43
2022-12-25T06:31:39.629Z,10.43
2022-12-25T06:32:39.591Z,10.44
2022-12-25T06:33:39.569Z,10.44
2022-12-25T06:34:39.566Z,10.44
2022-12-25T06:35:39.580Z,10.44
2022-12-25T06:36:39.553Z,10.43
2022-12-25T06:37:39.522Z,10.43
2022-12-25T06:38:39.551Z,10.44
2022-12-25T06:39:39.496Z,10.44
2022-12-25T06:40:39.508Z,10.43
2022-12-25T06:41:39.491Z,10.43
2022-12-25T06:42:39.481Z,10.43
2022-12-25T06:43:39.468Z,10.43
2022-12-25T06:44:39.449Z,10.43
2022-12-25T06:45:39.447Z,10.43
2022-12-25T06:46:39.445Z,10.44
2022-12-25T06:47:39.423Z,10.39
2022-12-25T06:48:39.429Z,10.39
2022-12-25T06:49:39.395Z,10.39
2022-12-25T06:50:39.380Z,10.42
2022-12-25T06:51:39.380Z,10.39
2022-12-25T06:52:39.378Z,10.38
2022-12-25T06:53:40.278Z,10.39
2022-12-25T06:54:39.363Z,10.39
2022-12-25T06:55:39.327Z,10.43
2022-12-25T06:56:39.330Z,10.43
2022-12-25T06:57:39.325Z,10.39
2022-12-25T06:58:39.325Z,10.38
2022-12-25T06:59:39.284Z,10.42
2022-12-25T07:00:39.367Z,10.42
2022-12-25T07:01:39.494Z,10.42
2022-12-25T07:02:39.396Z,10.42
2022-12-25T07:03:39.265Z,10.42
2022-12-25T07:04:39.261Z,10.43
2022-12-25T07:05:39.232Z,10.43
2022-12-25T07:06:39.212Z,10.43
2022-12-25T07:07:39.230Z,10.44
2022-12-25T07:08:39.210Z,10.44
2022-12-25T07:09:39.457Z,10.46
2022-12-25T07:10:39.186Z,10.46
2022-12-25T07:11:39.162Z,10.47
2022-12-25T07:12:39.201Z,10.49
2022-12-25T07:13:39.160Z,10.51
2022-12-25T07:14:39.153Z,10.51
2022-12-25T07:15:39.123Z,10.49
2022-12-25T07:16:39.168Z,10.51
2022-12-25T07:17:39.108Z,10.51
2022-12-25T07:18:39.104Z,10.49
2022-12-25T07:19:44.683Z,10.51
2022-12-25T07:20:40.066Z,10.52
2022-12-25T07:21:39.052Z,10.52
2022-12-25T07:22:39.044Z,10.54
2022-12-25T07:23:39.068Z,10.54
2022-12-25T07:24:39.035Z,10.54
2022-12-25T07:25:39.008Z,10.52
2022-12-25T07:26:38.995Z,10.52
2022-12-25T07:27:38.989Z,10.51
2022-12-25T07:28:39.006Z,10.51
2022-12-25T07:29:39.006Z,10.49
2022-12-25T07:30:38.971Z,10.52
2022-12-25T07:31:38.999Z,10.52
2022-12-25T07:32:38.977Z,10.52
2022-12-25T07:33:38.947Z,10.52
2022-12-25T07:34:38.922Z,10.52
2022-12-25T07:35:38.904Z,10.52
2022-12-25T07:36:38.912Z,10.52
2022-12-25T07:37:38.908Z,10.52
2022-12-25T07:38:38.917Z,10.49
2022-12-25T07:39:38.867Z,10.49
2022-12-25T07:40:38.863Z,10.51
2022-12-25T07:41:38.857Z,10.51
2022-12-25T07:42:38.836Z,10.51
2022-12-25T07:43:38.829Z,10.51
2022-12-25T07:44:38.821Z,10.51
2022-12-25T07:45:38.824Z,10.49
2022-12-25T07:46:38.805Z,10.46
2022-12-25T07:47:38.778Z,10.46
2022-12-25T07:48:38.830Z,10.47
2022-12-25T07:49:38.781Z,10.47
2022-12-25T07:50:38.763Z,10.46
2022-12-25T07:51:38.737Z,10.47
2022-12-25T07:52:43.493Z,10.44
2022-12-25T07:53:39.739Z,10.47
2022-12-25T07:54:38.738Z,10.49
2022-12-25T07:55:38.689Z,10.49
2022-12-25T07:56:38.690Z,10.51
2022-12-25T07:57:38.689Z,10.51
2022-12-25T07:58:38.669Z,10.51
2022-12-25T07:59:38.669Z,10.52
2022-12-25T08:00:38.678Z,10.52
2022-12-25T08:01:38.846Z,10.52
2022-12-25T08:02:38.715Z,10.52
2022-12-25T08:03:38.779Z,10.52
2022-12-25T08:04:38.611Z,10.52
2022-12-25T08:05:38.600Z,10.54
2022-12-25T08:06:38.591Z,10.54
2022-12-25T08:07:38.563Z,10.55
2022-12-25T08:08:38.575Z,10.55
2022-12-25T08:09:38.570Z,10.55
2022-12-25T08:10:38.545Z,10.55
2022-12-25T08:11:38.520Z,10.55
2022-12-25T08:12:38.510Z,10.57
2022-12-25T08:13:38.523Z,10.57
2022-12-25T08:14:38.536Z,10.55
2022-12-25T08:15:38.473Z,10.55
2022-12-25T08:16:38.525Z,10.55
2022-12-25T08:17:38.480Z,10.57
2022-12-25T08:18:38.459Z,10.57
2022-12-25T08:19:38.457Z,10.55
2022-12-25T08:20:38.441Z,10.55
2022-12-25T08:21:38.459Z,10.55
2022-12-25T08:22:38.420Z,10.55
2022-12-25T08:23:38.397Z,10.54
2022-12-25T08:24:38.387Z,10.58
2022-12-25T08:25:38.407Z,10.58
2022-12-25T08:26:38.395Z,10.57
2022-12-25T08:27:38.344Z,10.58
2022-12-25T08:28:38.339Z,10.58
2022-12-25T08:29:38.323Z,10.58
2022-12-25T08:30:38.344Z,10.62
2022-12-25T08:31:44.129Z,10.62
2022-12-25T08:32:39.309Z,10.62
2022-12-25T08:33:38.314Z,10.63
2022-12-25T08:34:38.281Z,10.63
2022-12-25T08:35:38.277Z,10.62
2022-12-25T08:36:38.278Z,10.65
2022-12-25T08:37:38.237Z,10.62
2022-12-25T08:38:38.246Z,10.60
2022-12-25T08:39:38.221Z,10.58
2022-12-25T08:40:38.246Z,10.60
2022-12-25T08:41:38.209Z,10.60
2022-12-25T08:42:38.213Z,10.62
2022-12-25T08:43:38.186Z,10.65
2022-12-25T08:44:38.197Z,10.66
2022-12-25T08:45:38.165Z,10.66
2022-12-25T08:46:38.217Z,10.69
2022-12-25T08:47:38.133Z,10.70
2022-12-25T08:48:38.127Z,10.73
2022-12-25T08:49:38.120Z,10.73
2022-12-25T08:50:38.162Z,10.76
2022-12-25T08:51:38.108Z,10.76
2022-12-25T08:52:38.091Z,10.76
2022-12-25T08:53:38.079Z,10.78
2022-12-25T08:54:38.079Z,10.76
2022-12-25T08:55:38.067Z,10.76
2022-12-25T08:56:38.069Z,10.78
2022-12-25T08:57:38.021Z,10.80
2022-12-25T08:58:38.042Z,10.78
2022-12-25T08:59:38.028Z,10.78
2022-12-25T09:00:38.035Z,10.75
2022-12-25T09:01:38.073Z,10.76
2022-12-25T09:02:38.227Z,10.75
2022-12-25T09:03:37.996Z,10.76
2022-12-25T09:04:37.981Z,10.76
2022-12-25T09:05:37.950Z,10.75
2022-12-25T09:06:37.959Z,10.75
2022-12-25T09:07:37.944Z,10.73
2022-12-25T09:08:41.113Z,10.72
2022-12-25T09:09:38.914Z,10.72
2022-12-25T09:10:37.885Z,10.72
2022-12-25T09:11:37.911Z,10.70
2022-12-25T09:12:37.862Z,10.72
2022-12-25T09:13:37.853Z,10.72
2022-12-25T09:14:37.858Z,10.72
2022-12-25T09:15:37.919Z,10.73
2022-12-25T09:16:37.853Z,10.75
2022-12-25T09:17:37.814Z,10.73
2022-12-25T09:18:37.820Z,10.73
2022-12-25T09:19:37.806Z,10.76
2022-12-25T09:20:37.785Z,10.78
2022-12-25T09:21:37.827Z,10.78
2022-12-25T09:22:37.774Z,10.78
2022-12-25T09:23:37.775Z,10.78
2022-12-25T09:24:37.745Z,10.78
2022-12-25T09:25:37.743Z,10.81
2022-12-25T09:26:37.762Z,10.80
2022-12-25T09:27:37.729Z,10.78
2022-12-25T09:28:37.705Z,10.81
2022-12-25T09:29:37.695Z,10.83
2022-12-25T09:30:37.713Z,10.83
2022-12-25T09:31:37.669Z,10.83
2022-12-25T09:32:37.667Z,10.83
2022-12-25T09:33:37.656Z,10.83
2022-12-25T09:34:37.644Z,10.84
2022-12-25T09:35:37.623Z,10.83
2022-12-25T09:36:37.610Z,10.84
2022-12-25T09:37:37.626Z,10.86
2022-12-25T09:38:37.597Z,10.84
2022-12-25T09:39:43.858Z,10.87
2022-12-25T09:40:38.565Z,10.88
2022-12-25T09:41:37.575Z,10.88
2022-12-25T09:42:37.548Z,10.91
2022-12-25T09:43:37.555Z,10.91
2022-12-25T09:44:37.540Z,10.93
2022-12-25T09:45:37.525Z,10.94
2022-12-25T09:46:37.733Z,10.94
2022-12-25T09:47:37.507Z,10.95
2022-12-25T09:48:37.497Z,10.98
2022-12-25T09:49:37.475Z,10.98
2022-12-25T09:50:37.463Z,10.99
2022-12-25T09:51:37.465Z,11.01
2022-12-25T09:52:37.459Z,11.01
2022-12-25T09:53:37.454Z,11.01
2022-12-25T09:54:37.423Z,11.02
2022-12-25T09:55:37.409Z,11.03
2022-12-25T09:56:37.410Z,11.05
2022-12-25T09:57:37.400Z,11.06
2022-12-25T09:58:37.381Z,11.09
2022-12-25T09:59:37.371Z,11.11
2022-12-25T10:00:37.390Z,11.12
2022-12-25T10:01:37.458Z,11.13
2022-12-25T10:02:37.724Z,11.17
2022-12-25T10:03:37.384Z,11.19
2022-12-25T10:04:40.750Z,11.21
2022-12-25T10:05:37.348Z,11.24
2022-12-25T10:06:37.292Z,11.24
2022-12-25T10:07:37.292Z,11.27
2022-12-25T10:08:37.280Z,11.28
2022-12-25T10:09:37.273Z,11.31
2022-12-25T10:10:37.287Z,11.35
2022-12-25T10:11:37.266Z,11.36
2022-12-25T10:12:37.232Z,11.42
2022-12-25T10:13:37.241Z,11.46
2022-12-25T10:14:37.212Z,11.51
2022-12-25T10:15:40.542Z,11.56
2022-12-25T10:16:38.276Z,11.62
2022-12-25T10:17:37.173Z,11.63
2022-12-25T10:18:37.174Z,11.66
2022-12-25T10:19:37.173Z,11.69
2022-12-25T10:20:37.143Z,11.74
2022-12-25T10:21:37.141Z,11.75
2022-12-25T10:22:37.137Z,11.78
2022-12-25T10:23:37.126Z,11.81
2022-12-25T10:24:37.099Z,11.84
2022-12-25T10:25:37.104Z,11.88
2022-12-25T10:26:37.097Z,11.94
2022-12-25T10:27:37.078Z,11.97
2022-12-25T10:28:37.082Z,12.01
2022-12-25T10:29:37.065Z,12.04
2022-12-25T10:30:37.035Z,12.11
2022-12-25T10:31:37.163Z,12.16
2022-12-25T10:32:37.038Z,12.21
2022-12-25T10:33:37.016Z,12.25
2022-12-25T10:34:36.995Z,12.30
2022-12-25T10:35:36.999Z,12.36
2022-12-25T10:36:36.987Z,12.40
2022-12-25T10:37:36.983Z,12.43
2022-12-25T10:38:36.950Z,12.49
2022-12-25T10:39:41.001Z,12.54
2022-12-25T10:40:37.978Z,12.58
2022-12-25T10:41:36.941Z,12.62
2022-12-25T10:42:36.931Z,12.67
2022-12-25T10:43:36.930Z,12.70
2022-12-25T10:44:36.899Z,12.74
2022-12-25T10:45:36.881Z,12.76
2022-12-25T10:46:36.938Z,12.79
2022-12-25T10:47:36.875Z,12.84
2022-12-25T10:48:36.854Z,12.87
2022-12-25T10:49:36.860Z,12.88
2022-12-25T10:50:36.858Z,12.91
2022-12-25T10:51:36.815Z,12.92
2022-12-25T10:52:36.818Z,12.94
2022-12-25T10:53:36.811Z,12.96
2022-12-25T10:54:36.789Z,12.98
2022-12-25T10:55:36.801Z,12.99
2022-12-25T10:56:36.770Z,13.01
2022-12-25T10:57:36.751Z,13.01
2022-12-25T10:58:36.748Z,13.01
2022-12-25T10:59:36.731Z,13.04
2022-12-25T11:00:36.731Z,13.06
2022-12-25T11:01:36.852Z,13.07
2022-12-25T11:02:36.975Z,13.10
2022-12-25T11:03:36.791Z,13.13
2022-12-25T11:04:36.691Z,13.16
2022-12-25T11:05:36.701Z,13.21
2022-12-25T11:06:36.672Z,13.22
2022-12-25T11:07:36.659Z,13.27
2022-12-25T11:08:36.643Z,13.28
2022-12-25T11:09:36.624Z,13.35
2022-12-25T11:10:36.645Z,13.39
2022-12-25T11:11:36.615Z,13.46
2022-12-25T11:12:36.612Z,13.50
2022-12-25T11:13:36.625Z,13.54
2022-12-25T11:14:36.568Z,13.55
2022-12-25T11:15:36.665Z,13.61
2022-12-25T11:16:36.626Z,13.62
2022-12-25T11:17:36.536Z,13.65
2022-12-25T11:18:36.560Z,13.68
2022-12-25T11:19:36.534Z,13.72
2022-12-25T11:20:36.543Z,13.73
2022-12-25T11:21:36.518Z,13.81
2022-12-25T11:22:36.481Z,13.87
2022-12-25T11:23:36.485Z,13.94
2022-12-25T11:24:36.472Z,14.01
2022-12-25T11:25:36.466Z,14.09
2022-12-25T11:26:36.475Z,14.19
2022-12-25T11:27:36.436Z,14.30
2022-12-25T11:28:36.426Z,14.44
2022-12-25T11:29:36.413Z,14.54
2022-12-25T11:30:36.406Z,14.66
2022-12-25T11:31:36.542Z,14.71
2022-12-25T11:32:36.377Z,14.79
2022-12-25T11:33:36.378Z,14.87
2022-12-25T11:34:36.359Z,14.97
2022-12-25T11:35:36.346Z,15.11
2022-12-25T11:36:36.328Z,15.25
2022-12-25T11:37:36.349Z,15.41
2022-12-25T11:38:36.327Z,15.55
2022-12-25T11:39:36.319Z,15.68
2022-12-25T11:40:36.291Z,15.71
2022-12-25T11:41:36.308Z,15.74
2022-12-25T11:42:36.297Z,15.77
2022-12-25T11:43:36.255Z,15.88
2022-12-25T11:44:36.249Z,16.10
2022-12-25T11:45:36.251Z,16.32
2022-12-25T11:46:36.258Z,16.48
2022-12-25T11:47:36.221Z,16.63
2022-12-25T11:48:36.205Z,17.32
2022-12-25T11:49:36.200Z,18.35
2022-12-25T11:50:36.204Z,19.24
2022-12-25T11:51:36.182Z,20.31
2022-12-25T11:52:36.178Z,21.45
2022-12-25T11:53:36.186Z,22.76
2022-12-25T11:54:36.132Z,23.93
2022-12-25T11:55:36.141Z,24.87
2022-12-25T11:56:36.133Z,25.29
2022-12-25T11:57:36.121Z,25.49
2022-12-25T11:58:36.116Z,25.79
2022-12-25T11:59:36.097Z,26.36
2022-12-25T12:00:36.091Z,27.40
2022-12-25T12:01:36.189Z,28.25
2022-12-25T12:02:36.172Z,28.58
2022-12-25T12:03:36.109Z,28.95
2022-12-25T12:04:42.381Z,29.45
2022-12-25T12:05:37.033Z,30.06
2022-12-25T12:06:36.014Z,29.79
2022-12-25T12:07:36.022Z,30.34
2022-12-25T12:08:35.986Z,30.37
2022-12-25T12:09:35.977Z,29.58
2022-12-25T12:10:35.978Z,29.86
2022-12-25T12:11:35.960Z,30.54
2022-12-25T12:12:35.969Z,30.97
2022-12-25T12:13:35.938Z,31.22
2022-12-25T12:14:35.920Z,31.52
2022-12-25T12:15:35.924Z,31.94
2022-12-25T12:16:35.944Z,31.30
2022-12-25T12:17:35.897Z,30.15
2022-12-25T12:18:35.896Z,29.58
2022-12-25T12:19:35.870Z,29.55
2022-12-25T12:20:35.888Z,29.78
2022-12-25T12:21:35.861Z,29.78
2022-12-25T12:22:35.860Z,30.01
2022-12-25T12:23:35.868Z,29.02
2022-12-25T12:24:35.811Z,28.62
2022-12-25T12:25:35.828Z,28.87
2022-12-25T12:26:35.837Z,29.14
2022-12-25T12:27:35.806Z,29.88
2022-12-25T12:28:35.814Z,30.48
2022-12-25T12:29:35.781Z,30.96
2022-12-25T12:30:35.829Z,31.19
2022-12-25T12:31:35.871Z,31.20
2022-12-25T12:32:35.732Z,30.60
2022-12-25T12:33:35.747Z,30.48
2022-12-25T12:34:35.734Z,30.61
2022-12-25T12:35:35.704Z,29.62
2022-12-25T12:36:36.955Z,27.95
2022-12-25T12:37:35.695Z,26.29
2022-12-25T12:38:35.669Z,24.89
2022-12-25T12:39:35.738Z,23.84
2022-12-25T12:40:35.655Z,23.18
2022-12-25T12:41:35.646Z,23.11
2022-12-25T12:42:35.641Z,23.04
2022-12-25T12:43:35.649Z,23.34
2022-12-25T12:44:35.627Z,23.53
2022-12-25T12:45:35.700Z,23.49
2022-12-25T12:46:35.708Z,22.91
2022-12-25T12:47:35.616Z,22.51
2022-12-25T12:48:35.591Z,22.14
2022-12-25T12:49:35.596Z,23.54
2022-12-25T12:50:35.547Z,24.80
2022-12-25T12:51:35.551Z,25.71
2022-12-25T12:52:35.577Z,26.34